createdAt,value
2022-07-25T00:01:58.350Z,20.69
2022-07-25T00:04:29.354Z,20.64
2022-07-25T00:06:59.527Z,20.65
2022-07-25T00:09:26.975Z,20.72
2022-07-25T00:11:54.430Z,20.73
2022-07-25T00:14:21.889Z,20.73
2022-07-25T00:16:49.339Z,20.66
2022-07-25T00:19:16.815Z,20.61
2022-07-25T00:21:45.818Z,20.63
2022-07-25T00:24:13.274Z,20.64
2022-07-25T00:26:40.788Z,20.27
2022-07-25T00:29:08.373Z,20.17
2022-07-25T00:31:35.971Z,20.21
2022-07-25T00:34:04.015Z,20.09
2022-07-25T00:36:31.834Z,19.99
2022-07-25T00:39:00.646Z,19.97
2022-07-25T00:41:28.097Z,19.94
2022-07-25T00:43:55.565Z,19.99
2022-07-25T00:46:23.359Z,20.06
2022-07-25T00:48:51.577Z,20.08
2022-07-25T00:51:19.315Z,20.02
2022-07-25T00:53:46.984Z,19.99
2022-07-25T00:56:16.556Z,20.07
2022-07-25T00:58:45.309Z,19.91
2022-07-25T01:01:12.844Z,19.68
2022-07-25T01:03:40.584Z,19.75
2022-07-25T01:06:08.886Z,19.77
2022-07-25T01:08:36.670Z,19.57
2022-07-25T01:11:04.312Z,19.53
2022-07-25T01:13:34.851Z,19.61
2022-07-25T01:16:02.470Z,19.64
2022-07-25T01:18:30.077Z,19.69
2022-07-25T01:20:58.925Z,19.60
2022-07-25T01:23:26.432Z,19.59
2022-07-25T01:25:54.068Z,19.77
2022-07-25T01:28:21.525Z,20.55
2022-07-25T01:30:49.167Z,20.47
2022-07-25T01:33:17.465Z,20.18
2022-07-25T01:35:45.398Z,20.06
2022-07-25T01:38:14.234Z,19.97
2022-07-25T01:40:42.222Z,20.00
2022-07-25T01:43:09.930Z,19.98
2022-07-25T01:45:38.267Z,19.79
2022-07-25T01:48:05.981Z,19.56
2022-07-25T01:50:33.548Z,19.51
2022-07-25T01:53:01.016Z,19.54
2022-07-25T01:55:29.930Z,19.42
2022-07-25T01:57:58.636Z,19.37
2022-07-25T02:00:27.253Z,19.33
2022-07-25T02:03:15.297Z,19.28
2022-07-25T02:05:42.798Z,19.19
2022-07-25T02:08:11.227Z,19.32
2022-07-25T02:10:40.198Z,19.34
2022-07-25T02:13:07.917Z,19.44
2022-07-25T02:15:36.607Z,19.52
2022-07-25T02:18:04.188Z,20.07
2022-07-25T02:20:31.695Z,20.51
2022-07-25T02:22:59.132Z,20.49
2022-07-25T02:25:26.591Z,20.56
2022-07-25T02:27:55.377Z,20.34
2022-07-25T02:30:22.963Z,20.10
2022-07-25T02:32:50.456Z,20.10
2022-07-25T02:35:17.938Z,20.43
2022-07-25T02:37:45.533Z,20.26
2022-07-25T02:40:13.565Z,19.93
2022-07-25T02:42:41.049Z,19.76
2022-07-25T02:45:10.965Z,19.90
2022-07-25T02:47:38.454Z,19.99
2022-07-25T02:50:06.972Z,19.79
2022-07-25T02:52:35.957Z,19.74
2022-07-25T02:55:09.271Z,20.09
2022-07-25T02:57:37.104Z,20.57
2022-07-25T03:00:05.589Z,20.62
2022-07-25T03:02:34.418Z,20.66
2022-07-25T03:05:01.917Z,20.72
2022-07-25T03:07:29.555Z,20.77
2022-07-25T03:09:57.051Z,20.78
2022-07-25T03:12:24.521Z,20.88
2022-07-25T03:14:51.984Z,20.89
2022-07-25T03:17:19.614Z,20.63
2022-07-25T03:19:48.424Z,20.42
2022-07-25T03:22:15.984Z,20.47
2022-07-25T03:24:43.690Z,20.31
2022-07-25T03:27:11.165Z,20.75
2022-07-25T03:29:38.850Z,20.72
2022-07-25T03:32:07.506Z,20.83
2022-07-25T03:34:35.327Z,20.86
2022-07-25T03:37:05.510Z,20.86
2022-07-25T03:39:34.453Z,20.89
2022-07-25T03:42:01.936Z,20.96
2022-07-25T03:44:29.375Z,20.87
2022-07-25T03:46:56.841Z,20.75
2022-07-25T03:49:24.331Z,20.74
2022-07-25T03:51:51.798Z,20.73
2022-07-25T03:54:21.014Z,20.91
2022-07-25T03:56:50.048Z,20.83
2022-07-25T03:59:19.519Z,20.65
2022-07-25T04:01:48.771Z,20.26
2022-07-25T04:04:17.229Z,20.11
2022-07-25T04:06:45.421Z,19.94
2022-07-25T04:09:13.271Z,19.71
2022-07-25T04:11:42.414Z,19.54
2022-07-25T04:14:10.408Z,19.49
2022-07-25T04:16:38.135Z,19.55
2022-07-25T04:19:07.927Z,19.49
2022-07-25T04:21:36.327Z,19.54
2022-07-25T04:24:04.263Z,19.62
2022-07-25T04:26:32.024Z,19.36
2022-07-25T04:29:03.423Z,19.30
2022-07-25T04:31:31.184Z,19.41
2022-07-25T04:33:59.549Z,19.49
2022-07-25T04:36:27.553Z,19.23
2022-07-25T04:38:55.043Z,19.28
2022-07-25T04:41:23.490Z,19.38
2022-07-25T04:43:51.007Z,19.41
2022-07-25T04:46:23.790Z,19.54
2022-07-25T04:48:51.981Z,19.58
2022-07-25T04:51:19.812Z,19.58
2022-07-25T04:53:47.630Z,19.63
2022-07-25T04:56:15.185Z,19.57
2022-07-25T04:58:42.744Z,19.54
2022-07-25T05:01:10.339Z,19.67
2022-07-25T05:03:39.251Z,20.08
2022-07-25T05:06:07.352Z,20.02
2022-07-25T05:08:34.843Z,20.30
2022-07-25T05:11:02.337Z,20.52
2022-07-25T05:13:29.933Z,20.77
2022-07-25T05:15:57.435Z,20.88
2022-07-25T05:18:24.956Z,20.83
2022-07-25T05:20:53.825Z,20.87
2022-07-25T05:23:22.364Z,20.77
2022-07-25T05:25:49.861Z,20.84
2022-07-25T05:28:18.673Z,21.04
2022-07-25T05:30:46.170Z,20.98
2022-07-25T05:33:13.682Z,20.94
2022-07-25T05:35:41.409Z,20.93
2022-07-25T05:38:10.212Z,21.00
2022-07-25T05:40:37.683Z,21.11
2022-07-25T05:43:05.141Z,21.19
2022-07-25T05:45:32.648Z,21.26
2022-07-25T05:48:00.168Z,21.35
2022-07-25T05:50:27.635Z,21.45
2022-07-25T05:52:55.162Z,21.56
2022-07-25T05:55:24.044Z,21.73
2022-07-25T05:57:51.527Z,21.81
2022-07-25T06:00:19.196Z,21.89
2022-07-25T06:02:46.902Z,21.95
2022-07-25T06:05:14.639Z,22.01
2022-07-25T06:07:42.264Z,22.09
2022-07-25T06:10:10.526Z,22.18
2022-07-25T06:12:39.361Z,22.34
2022-07-25T06:15:19.213Z,22.48
2022-07-25T06:17:50.608Z,22.60
2022-07-25T06:20:18.109Z,22.80
2022-07-25T06:22:45.603Z,22.85
2022-07-25T06:25:13.122Z,22.89
2022-07-25T06:27:42.478Z,23.06
2022-07-25T06:30:19.830Z,23.23
2022-07-25T06:32:48.097Z,23.19
2022-07-25T06:35:15.650Z,23.29
2022-07-25T06:37:43.349Z,23.44
2022-07-25T06:40:11.209Z,23.52
2022-07-25T06:42:40.016Z,23.51
2022-07-25T06:45:10.777Z,23.54
2022-07-25T06:47:38.738Z,23.58
2022-07-25T06:50:07.452Z,23.68
2022-07-25T06:52:35.868Z,23.83
2022-07-25T06:55:03.971Z,23.90
2022-07-25T06:57:31.817Z,24.00
2022-07-25T06:59:59.594Z,24.13
2022-07-25T07:02:28.523Z,24.28
2022-07-25T07:04:56.149Z,24.42
2022-07-25T07:07:24.056Z,24.52
2022-07-25T07:09:51.556Z,24.74
2022-07-25T07:12:19.114Z,24.81
2022-07-25T07:14:47.840Z,24.88
2022-07-25T07:17:15.403Z,25.05
2022-07-25T07:19:45.895Z,25.06
2022-07-25T07:22:13.639Z,25.21
2022-07-25T07:24:44.329Z,25.33
2022-07-25T07:27:15.725Z,25.46
2022-07-25T07:29:46.700Z,25.61
2022-07-25T07:32:14.546Z,25.74
2022-07-25T07:34:42.135Z,25.83
2022-07-25T07:37:11.083Z,25.92
2022-07-25T07:39:38.551Z,26.00
2022-07-25T07:42:06.248Z,26.06
2022-07-25T07:44:33.747Z,26.16
2022-07-25T07:47:02.802Z,26.26
2022-07-25T07:49:30.518Z,26.36
2022-07-25T07:52:04.635Z,26.39
2022-07-25T07:54:51.025Z,26.43
2022-07-25T07:57:19.754Z,26.51
2022-07-25T07:59:47.197Z,26.48
2022-07-25T08:02:16.299Z,26.55
2022-07-25T08:04:43.833Z,26.63
2022-07-25T08:07:11.341Z,26.68
2022-07-25T08:09:40.201Z,26.74
2022-07-25T08:12:08.129Z,26.88
2022-07-25T08:14:35.625Z,26.83
2022-07-25T08:17:03.185Z,26.87
2022-07-25T08:19:30.633Z,27.04
2022-07-25T08:21:58.102Z,27.13
2022-07-25T08:24:25.583Z,27.17
2022-07-25T08:26:54.387Z,27.26
2022-07-25T08:29:26.292Z,27.44
2022-07-25T08:31:55.609Z,27.43
2022-07-25T08:34:23.698Z,27.49
2022-07-25T08:36:51.426Z,27.62
2022-07-25T08:39:18.955Z,27.69
2022-07-25T08:41:46.659Z,27.70
2022-07-25T08:44:17.171Z,27.78
2022-07-25T08:46:45.825Z,27.89
2022-07-25T08:49:13.484Z,28.01
2022-07-25T08:51:41.201Z,28.08
2022-07-25T08:54:09.532Z,28.09
2022-07-25T08:56:37.365Z,28.20
2022-07-25T08:59:04.911Z,28.29
2022-07-25T09:01:35.057Z,28.39
2022-07-25T09:04:04.004Z,28.47
2022-07-25T09:06:31.752Z,28.60
2022-07-25T09:09:00.639Z,28.61
2022-07-25T09:11:32.650Z,28.71
2022-07-25T09:14:01.756Z,28.82
2022-07-25T09:16:35.417Z,28.89
2022-07-25T09:19:13.793Z,29.01
2022-07-25T09:21:42.786Z,29.22
2022-07-25T09:24:13.126Z,29.45
2022-07-25T09:26:44.999Z,29.68
2022-07-25T09:29:18.274Z,29.80
2022-07-25T09:31:47.207Z,30.04
2022-07-25T09:34:20.900Z,30.33
2022-07-25T09:36:53.647Z,30.49
2022-07-25T09:39:21.241Z,30.63
2022-07-25T09:41:49.560Z,30.73
2022-07-25T09:44:17.788Z,30.78
2022-07-25T09:46:46.927Z,30.71
2022-07-25T09:49:14.945Z,30.76
2022-07-25T09:51:42.595Z,30.80
2022-07-25T09:54:10.383Z,30.90
2022-07-25T09:56:37.994Z,31.00
2022-07-25T09:59:05.886Z,30.87
2022-07-25T10:01:38.078Z,30.76
2022-07-25T10:04:14.377Z,30.56
2022-07-25T10:06:47.705Z,30.54
2022-07-25T10:09:15.562Z,30.65
2022-07-25T10:12:07.922Z,30.83
2022-07-25T10:14:35.709Z,30.96
2022-07-25T10:17:03.258Z,30.95
2022-07-25T10:19:42.193Z,31.01
2022-07-25T10:22:12.528Z,31.17
2022-07-25T10:24:40.461Z,31.18
2022-07-25T10:27:11.435Z,31.27
2022-07-25T10:29:39.303Z,31.50
2022-07-25T10:32:08.300Z,31.57
2022-07-25T10:34:36.484Z,31.68
2022-07-25T10:37:11.443Z,31.83
2022-07-25T10:39:40.084Z,31.90
2022-07-25T10:42:07.753Z,31.80
2022-07-25T10:44:44.291Z,31.82
2022-07-25T10:47:13.219Z,31.90
2022-07-25T10:50:00.229Z,31.81
2022-07-25T10:52:30.078Z,32.03
2022-07-25T10:54:59.030Z,32.02
2022-07-25T10:57:31.553Z,32.02
2022-07-25T11:00:07.909Z,31.88
2022-07-25T11:02:35.446Z,31.68
2022-07-25T11:05:04.142Z,31.76
2022-07-25T11:07:36.046Z,32.02
2022-07-25T11:10:05.872Z,32.09
2022-07-25T11:12:33.618Z,32.35
2022-07-25T11:15:02.161Z,32.52
2022-07-25T11:17:31.025Z,32.58
2022-07-25T11:20:00.011Z,32.63
2022-07-25T11:22:28.453Z,32.62
2022-07-25T11:24:57.076Z,32.63
2022-07-25T11:27:25.840Z,32.61
2022-07-25T11:29:54.822Z,32.57
2022-07-25T11:32:22.331Z,32.55
2022-07-25T11:34:54.086Z,32.70
2022-07-25T11:37:22.030Z,32.72
2022-07-25T11:39:49.696Z,32.78
2022-07-25T11:42:18.640Z,33.01
2022-07-25T11:44:48.409Z,33.13
2022-07-25T11:47:25.060Z,33.41
2022-07-25T11:49:55.413Z,33.61
2022-07-25T11:52:24.455Z,33.45
2022-07-25T11:54:56.090Z,33.37
2022-07-25T11:57:24.927Z,33.27
2022-07-25T11:59:52.880Z,33.38
2022-07-25T12:02:25.217Z,33.43
2022-07-25T12:04:58.544Z,33.51
2022-07-25T12:07:51.334Z,33.68
2022-07-25T12:10:20.457Z,33.87
2022-07-25T12:12:50.112Z,34.07
2022-07-25T12:15:20.855Z,34.09
2022-07-25T12:17:48.825Z,34.12
2022-07-25T12:20:18.950Z,34.23
2022-07-25T12:22:46.973Z,34.16
2022-07-25T12:25:14.994Z,34.32
2022-07-25T12:27:42.610Z,34.24
2022-07-25T12:30:11.513Z,34.29
2022-07-25T12:32:39.458Z,34.22
2022-07-25T12:35:08.501Z,34.18
2022-07-25T12:37:37.540Z,33.89
2022-07-25T12:40:06.303Z,33.75
2022-07-25T12:42:33.808Z,33.68
2022-07-25T12:45:01.353Z,33.98
2022-07-25T12:47:29.323Z,34.06
2022-07-25T12:49:57.129Z,33.99
2022-07-25T12:52:24.630Z,33.90
2022-07-25T12:54:53.466Z,33.67
2022-07-25T12:57:21.592Z,33.57
2022-07-25T12:59:49.062Z,33.31
2022-07-25T13:02:16.625Z,33.26
2022-07-25T13:04:44.215Z,32.88
2022-07-25T13:07:11.700Z,32.14
2022-07-25T13:09:39.164Z,32.14
2022-07-25T13:12:10.426Z,32.41
2022-07-25T13:14:41.119Z,32.54
2022-07-25T13:17:08.635Z,32.62
2022-07-25T13:19:36.324Z,32.74
2022-07-25T13:22:03.859Z,32.62
2022-07-25T13:24:31.724Z,32.51
2022-07-25T13:26:59.595Z,32.70
2022-07-25T13:29:28.361Z,32.82
2022-07-25T13:31:56.091Z,32.58
2022-07-25T13:34:23.591Z,32.49
2022-07-25T13:36:51.061Z,32.45
2022-07-25T13:39:19.175Z,32.68
2022-07-25T13:41:47.084Z,32.80
2022-07-25T13:44:15.284Z,32.96
2022-07-25T13:46:46.372Z,32.83
2022-07-25T13:49:14.059Z,32.91
2022-07-25T13:51:41.630Z,32.94
2022-07-25T13:54:09.133Z,33.07
2022-07-25T13:56:36.576Z,33.23
2022-07-25T13:59:05.217Z,33.04
2022-07-25T14:01:33.134Z,32.65
2022-07-25T14:04:02.041Z,32.58
2022-07-25T14:06:29.539Z,32.58
2022-07-25T14:08:56.983Z,32.53
2022-07-25T14:11:28.709Z,32.66
2022-07-25T14:13:58.166Z,33.06
2022-07-25T14:16:25.686Z,33.48
2022-07-25T14:18:54.854Z,33.77
2022-07-25T14:21:24.038Z,33.83
2022-07-25T14:23:53.613Z,33.86
2022-07-25T14:26:21.270Z,34.02
2022-07-25T14:28:48.871Z,34.11
2022-07-25T14:31:16.495Z,34.14
2022-07-25T14:33:44.178Z,34.11
2022-07-25T14:36:12.720Z,33.89
2022-07-25T14:38:41.764Z,33.92
2022-07-25T14:41:13.161Z,33.54
2022-07-25T14:43:40.993Z,33.27
2022-07-25T14:46:08.964Z,32.95
2022-07-25T14:48:37.245Z,32.79
2022-07-25T14:51:05.016Z,32.80
2022-07-25T14:53:33.312Z,33.07
2022-07-25T14:56:03.067Z,33.16
2022-07-25T14:58:30.644Z,33.44
2022-07-25T15:00:58.343Z,33.42
2022-07-25T15:03:42.612Z,33.33
2022-07-25T15:06:10.719Z,33.48
2022-07-25T15:08:39.788Z,33.38
2022-07-25T15:11:08.805Z,33.12
2022-07-25T15:13:36.379Z,33.36
2022-07-25T15:16:05.178Z,33.73
2022-07-25T15:18:46.848Z,33.81
2022-07-25T15:21:20.629Z,33.73
2022-07-25T15:23:48.280Z,33.79
2022-07-25T15:26:17.325Z,33.83
2022-07-25T15:28:45.171Z,33.84
2022-07-25T15:31:13.121Z,33.65
2022-07-25T15:33:40.735Z,33.57
2022-07-25T15:36:09.240Z,33.52
2022-07-25T15:38:36.840Z,33.21
2022-07-25T15:41:04.450Z,33.26
2022-07-25T15:43:33.620Z,33.53
2022-07-25T15:46:01.351Z,33.77
2022-07-25T15:48:29.326Z,34.03
2022-07-25T15:50:58.700Z,33.99
2022-07-25T15:53:26.435Z,33.98
2022-07-25T15:55:54.023Z,33.90
2022-07-25T15:58:21.585Z,33.80
2022-07-25T16:00:50.641Z,33.73
2022-07-25T16:03:18.263Z,33.62
2022-07-25T16:05:45.794Z,33.54
2022-07-25T16:08:13.339Z,33.53
2022-07-25T16:10:41.563Z,33.43
2022-07-25T16:13:10.236Z,33.31
2022-07-25T16:15:38.194Z,33.17
2022-07-25T16:18:07.333Z,33.14
2022-07-25T16:20:34.900Z,33.12
2022-07-25T16:23:02.812Z,32.83
2022-07-25T16:25:31.131Z,32.86
2022-07-25T16:27:59.612Z,32.75
2022-07-25T16:30:27.432Z,32.48
2022-07-25T16:32:55.607Z,32.39
2022-07-25T16:35:25.100Z,32.45
2022-07-25T16:37:52.883Z,32.40
2022-07-25T16:40:21.158Z,32.49
2022-07-25T16:42:50.218Z,32.52
2022-07-25T16:45:17.938Z,32.56
2022-07-25T16:47:45.675Z,32.54
2022-07-25T16:50:13.217Z,32.33
2022-07-25T16:52:42.207Z,32.12
2022-07-25T16:55:10.243Z,32.10
2022-07-25T16:57:39.061Z,32.05
2022-07-25T17:00:08.269Z,32.08
2022-07-25T17:02:35.990Z,32.11
2022-07-25T17:05:03.987Z,31.70
2022-07-25T17:07:32.564Z,31.69
2022-07-25T17:10:01.613Z,31.56
2022-07-25T17:12:29.160Z,30.94
2022-07-25T17:14:56.687Z,30.85
2022-07-25T17:17:24.239Z,31.03
2022-07-25T17:19:55.249Z,31.17
2022-07-25T17:22:25.517Z,31.06
2022-07-25T17:24:53.138Z,31.07
2022-07-25T17:27:22.119Z,31.28
2022-07-25T17:29:49.650Z,31.32
2022-07-25T17:32:17.247Z,31.15
2022-07-25T17:34:45.017Z,30.65
2022-07-25T17:37:12.856Z,30.91
2022-07-25T17:39:40.388Z,30.82
2022-07-25T17:42:08.179Z,30.00
2022-07-25T17:44:37.058Z,29.72
2022-07-25T17:47:04.808Z,29.79
2022-07-25T17:49:32.333Z,29.61
2022-07-25T17:51:59.942Z,29.27
2022-07-25T17:54:27.535Z,29.26
2022-07-25T17:56:55.166Z,29.07
2022-07-25T17:59:23.163Z,29.02
2022-07-25T18:01:52.301Z,28.96
2022-07-25T18:04:19.990Z,28.78
2022-07-25T18:06:47.528Z,28.65
2022-07-25T18:09:17.917Z,28.67
2022-07-25T18:11:45.529Z,28.41
2022-07-25T18:14:13.186Z,28.47
2022-07-25T18:16:41.380Z,28.58
2022-07-25T18:19:10.365Z,28.41
2022-07-25T18:21:38.010Z,28.11
2022-07-25T18:24:06.968Z,27.88
2022-07-25T18:26:34.986Z,27.98
2022-07-25T18:29:05.477Z,27.60
2022-07-25T18:31:33.126Z,27.55
2022-07-25T18:34:00.913Z,27.42
2022-07-25T18:36:30.851Z,27.31
2022-07-25T18:38:58.933Z,27.07
2022-07-25T18:41:29.642Z,27.13
2022-07-25T18:43:57.618Z,27.18
2022-07-25T18:46:25.456Z,27.02
2022-07-25T18:48:53.763Z,26.92
2022-07-25T18:51:21.578Z,26.67
2022-07-25T18:53:50.803Z,26.73
2022-07-25T18:56:18.392Z,26.64
2022-07-25T18:58:46.222Z,26.63
2022-07-25T19:01:13.874Z,26.82
2022-07-25T19:03:41.564Z,26.54
2022-07-25T19:06:09.928Z,26.54
2022-07-25T19:08:37.662Z,26.49
2022-07-25T19:11:11.623Z,26.56
2022-07-25T19:13:49.619Z,26.09
2022-07-25T19:16:18.422Z,26.23
2022-07-25T19:18:46.168Z,26.09
2022-07-25T19:21:14.092Z,26.13
2022-07-25T19:23:43.784Z,26.05
2022-07-25T19:26:17.184Z,25.86
2022-07-25T19:28:44.827Z,25.85
2022-07-25T19:31:14.766Z,25.59
2022-07-25T19:33:42.516Z,25.34
2022-07-25T19:36:10.779Z,25.37
2022-07-25T19:38:38.606Z,25.20
2022-07-25T19:41:06.265Z,25.11
2022-07-25T19:43:35.248Z,25.28
2022-07-25T19:46:02.953Z,25.24
2022-07-25T19:48:30.579Z,25.16
2022-07-25T19:50:58.158Z,25.20
2022-07-25T19:53:28.649Z,25.33
2022-07-25T19:55:56.485Z,25.34
2022-07-25T19:58:24.032Z,25.25
2022-07-25T20:00:53.010Z,25.50
2022-07-25T20:03:23.036Z,25.63
2022-07-25T20:05:51.388Z,25.55
2022-07-25T20:08:18.977Z,25.25
2022-07-25T20:10:47.340Z,25.24
2022-07-25T20:13:15.297Z,25.23
2022-07-25T20:15:42.930Z,25.24
2022-07-25T20:18:16.062Z,25.13
2022-07-25T20:20:47.247Z,25.02
2022-07-25T20:23:14.825Z,24.93
2022-07-25T20:25:42.364Z,24.88
2022-07-25T20:28:10.324Z,24.81
2022-07-25T20:30:37.911Z,24.69
2022-07-25T20:33:08.881Z,24.65
2022-07-25T20:35:38.987Z,24.48
2022-07-25T20:38:09.464Z,24.42
2022-07-25T20:40:38.879Z,24.42
2022-07-25T20:43:09.051Z,24.74
2022-07-25T20:45:36.814Z,24.43
2022-07-25T20:48:04.645Z,24.26
2022-07-25T20:50:32.354Z,24.22
2022-07-25T20:53:01.225Z,24.22
2022-07-25T20:55:30.331Z,24.31
2022-07-25T20:57:58.086Z,24.47
2022-07-25T21:00:27.625Z,24.28
2022-07-25T21:02:55.960Z,24.56
2022-07-25T21:05:23.697Z,24.51
2022-07-25T21:07:51.262Z,24.47
2022-07-25T21:10:20.232Z,24.50
2022-07-25T21:12:47.843Z,24.39
2022-07-25T21:15:15.824Z,24.33
2022-07-25T21:17:43.434Z,24.25
2022-07-25T21:20:13.379Z,24.29
2022-07-25T21:22:41.247Z,24.37
2022-07-25T21:25:09.826Z,24.47
2022-07-25T21:27:39.151Z,24.40
2022-07-25T21:30:09.031Z,24.50
2022-07-25T21:32:36.795Z,24.49
2022-07-25T21:35:05.484Z,24.42
2022-07-25T21:37:33.274Z,24.33
2022-07-25T21:40:00.832Z,24.28
2022-07-25T21:42:28.438Z,24.30
2022-07-25T21:44:57.363Z,24.23
2022-07-25T21:47:24.991Z,24.67
2022-07-25T21:50:09.992Z,24.77
2022-07-25T21:52:41.027Z,24.48
2022-07-25T21:55:09.416Z,24.24
2022-07-25T21:57:37.022Z,24.20
2022-07-25T22:00:08.534Z,24.14
2022-07-25T22:02:36.230Z,24.11
2022-07-25T22:05:04.031Z,24.29
2022-07-25T22:07:31.672Z,24.56
2022-07-25T22:09:59.339Z,24.44
2022-07-25T22:12:26.961Z,24.50
2022-07-25T22:14:54.557Z,24.38
2022-07-25T22:17:23.465Z,24.42
2022-07-25T22:19:51.060Z,24.53
2022-07-25T22:25:46.349Z,24.23
2022-07-25T22:28:14.230Z,24.40
2022-07-25T22:30:42.041Z,24.71
2022-07-25T22:33:10.961Z,24.59
2022-07-25T22:35:38.736Z,24.56
2022-07-25T22:38:06.435Z,24.40
2022-07-25T22:40:34.006Z,24.44
2022-07-25T22:43:01.566Z,24.43
2022-07-25T22:45:29.185Z,24.26
2022-07-25T22:47:58.577Z,24.23
2022-07-25T22:50:27.632Z,24.29
2022-07-25T22:52:55.237Z,24.20
2022-07-25T22:55:23.798Z,23.93
2022-07-25T22:57:53.173Z,24.02
2022-07-25T23:00:20.846Z,24.04
2022-07-25T23:02:48.517Z,24.03
2022-07-25T23:05:16.293Z,23.96
2022-07-25T23:07:45.260Z,23.88
2022-07-25T23:10:13.214Z,23.78
2022-07-25T23:12:40.841Z,23.68
2022-07-25T23:15:09.210Z,23.56
2022-07-25T23:17:36.988Z,23.56
2022-07-25T23:20:05.706Z,23.56
2022-07-25T23:22:33.461Z,23.49
2022-07-25T23:25:02.321Z,23.57
2022-07-25T23:27:33.924Z,23.50
2022-07-25T23:30:05.686Z,23.54
2022-07-25T23:32:33.856Z,23.40
2022-07-25T23:35:01.767Z,23.23
2022-07-25T23:37:29.439Z,23.10
2022-07-25T23:39:57.462Z,22.86
2022-07-25T23:42:31.160Z,23.00
2022-07-25T23:45:01.435Z,22.77
2022-07-25T23:47:39.442Z,22.70
2022-07-25T23:50:10.852Z,22.64
2022-07-25T23:52:38.868Z,22.47
2022-07-25T23:55:10.415Z,22.49
2022-07-25T23:57:39.702Z,22.47
